Aérodrome :
LOGIN :

S'inscrire | Disclaimer

   EN    FR    IT 

 










Légende :    VFR   VFR Marginal   IFR   IFR Intensif   IFR Très Intensif
Visi : 
Plafond : 
>= 8 km
>= 3000ft
5 à 8 km
1000 à 3000 ft
1500m à 5 km
500 à 1000 ft
800 à 1500m
200 à 500 ft
< 800m
< 200 ft
Symboles :   Orages  Brouillard  Fortes neiges  Fortes précipitations  Vent > 20 kt
SIGMETs :   Divers  Orages  Givrage  Turbulence  Onde Orograph.  Cendres Volcan.






- Altitude de l'aérodrome : 25 ft
- Code IATA : QCY


EGXC - RAF Coningsby

DERNIER METAR :
  • 100750Z 29006KT 9999 SCT010 BKN045 14/11 Q1015 BECMG FEW010 SCT015 RMK GRN BECMG WHT

METARs EXPIRÉS :
  • 100650Z 31005KT 9999 FEW006 BKN008 13/12 Q1014 BECMG FEW008 SCT020 RMK GRN BECMG WHT
  • 100626Z 32006KT 9999 SCT006 BKN010 13/11 Q1014 RMK YLO1
  • 100550Z 31005KT 7000 BR SCT004 BKN008 12/11 Q1014 RMK YLO2

TAF TAF EGXC
Valide du 10 à 09h jusqu'au 11 à 03h UTC


100724Z 1009/1103 31008KT 9999 SCT030
TEMPO 1009/1011 SCT020
PROB30
TEMPO 1011/1019 6000 SHRA BKN020CB



MET'MAP, la Météo Aéronautique d'un coup d'oeil ! - Copyright ORBIFLY Décembre 2007 - Disclaimer

ORBIFLY MET'MAP TEAM :

Programmation & Développement : Alexandra Zaïnal
Sur une idée originale de : Baudouin d'Aumeries
Assistance à la programmation : Marc-Olivier Méhu
Soutien technique & logistique : Manuel Goepfert

Contact : metmap@orbifly.com




SOURCES & CREDITS :

   NOAA